sensor_id;sensor_type;location;lat;lon;timestamp;P1;durP1;ratioP1;P2;durP2;ratioP2
9288;SDS011;4683;50.864;12.086;2023-09-19T00:01:56;3.33;;;2.37;;
9288;SDS011;4683;50.864;12.086;2023-09-19T00:04:35;2.53;;;2.30;;
9288;SDS011;4683;50.864;12.086;2023-09-19T00:07:15;2.93;;;2.30;;
9288;SDS011;4683;50.864;12.086;2023-09-19T00:09:47;3.47;;;2.30;;
9288;SDS011;4683;50.864;12.086;2023-09-19T00:12:20;4.47;;;2.30;;
9288;SDS011;4683;50.864;12.086;2023-09-19T00:14:51;2.37;;;2.17;;
9288;SDS011;4683;50.864;12.086;2023-09-19T00:17:25;1.77;;;1.67;;
9288;SDS011;4683;50.864;12.086;2023-09-19T00:20:03;2.47;;;2.27;;
9288;SDS011;4683;50.864;12.086;2023-09-19T00:22:39;2.77;;;1.90;;
9288;SDS011;4683;50.864;12.086;2023-09-19T00:25:13;2.20;;;2.00;;
9288;SDS011;4683;50.864;12.086;2023-09-19T00:27:48;2.47;;;2.27;;
9288;SDS011;4683;50.864;12.086;2023-09-19T00:30:23;2.13;;;1.90;;
9288;SDS011;4683;50.864;12.086;2023-09-19T00:32:58;3.10;;;2.20;;
9288;SDS011;4683;50.864;12.086;2023-09-19T00:35:32;2.67;;;1.87;;
9288;SDS011;4683;50.864;12.086;2023-09-19T00:38:08;1.63;;;1.53;;
9288;SDS011;4683;50.864;12.086;2023-09-19T00:40:56;1.53;;;1.43;;
9288;SDS011;4683;50.864;12.086;2023-09-19T00:43:30;1.70;;;1.60;;
9288;SDS011;4683;50.864;12.086;2023-09-19T00:46:07;3.20;;;1.67;;
9288;SDS011;4683;50.864;12.086;2023-09-19T00:48:41;2.17;;;1.60;;
9288;SDS011;4683;50.864;12.086;2023-09-19T00:51:15;2.03;;;1.60;;
9288;SDS011;4683;50.864;12.086;2023-09-19T00:53:52;3.23;;;1.60;;
9288;SDS011;4683;50.864;12.086;2023-09-19T00:56:30;1.63;;;1.40;;
9288;SDS011;4683;50.864;12.086;2023-09-19T00:59:04;2.47;;;1.93;;
9288;SDS011;4683;50.864;12.086;2023-09-19T01:01:52;1.97;;;1.30;;
9288;SDS011;4683;50.864;12.086;2023-09-19T01:04:26;1.97;;;1.23;;
9288;SDS011;4683;50.864;12.086;2023-09-19T01:07:00;1.47;;;1.20;;
9288;SDS011;4683;50.864;12.086;2023-09-19T01:09:36;1.47;;;1.37;;
9288;SDS011;4683;50.864;12.086;2023-09-19T01:12:09;1.43;;;1.33;;
9288;SDS011;4683;50.864;12.086;2023-09-19T01:14:54;2.67;;;1.50;;
9288;SDS011;4683;50.864;12.086;2023-09-19T01:17:42;1.67;;;1.50;;
9288;SDS011;4683;50.864;12.086;2023-09-19T01:20:26;3.07;;;1.60;;
9288;SDS011;4683;50.864;12.086;2023-09-19T01:23:11;2.30;;;1.63;;
9288;SDS011;4683;50.864;12.086;2023-09-19T01:26:04;2.17;;;1.37;;
9288;SDS011;4683;50.864;12.086;2023-09-19T01:28:53;2.43;;;1.87;;
9288;SDS011;4683;50.864;12.086;2023-09-19T01:31:47;1.30;;;1.20;;
9288;SDS011;4683;50.864;12.086;2023-09-19T01:34:43;1.70;;;1.60;;
9288;SDS011;4683;50.864;12.086;2023-09-19T01:37:19;1.40;;;1.30;;
9288;SDS011;4683;50.864;12.086;2023-09-19T01:39:57;3.40;;;2.17;;
9288;SDS011;4683;50.864;12.086;2023-09-19T01:42:45;1.40;;;1.30;;
9288;SDS011;4683;50.864;12.086;2023-09-19T01:45:27;1.77;;;1.67;;
9288;SDS011;4683;50.864;12.086;2023-09-19T01:48:19;1.93;;;1.77;;
9288;SDS011;4683;50.864;12.086;2023-09-19T01:51:14;1.80;;;1.70;;
9288;SDS011;4683;50.864;12.086;2023-09-19T01:53:55;1.60;;;1.50;;
9288;SDS011;4683;50.864;12.086;2023-09-19T01:56:36;1.97;;;1.40;;
9288;SDS011;4683;50.864;12.086;2023-09-19T01:59:33;1.77;;;1.60;;
9288;SDS011;4683;50.864;12.086;2023-09-19T02:02:08;2.10;;;1.57;;
9288;SDS011;4683;50.864;12.086;2023-09-19T02:04:44;1.93;;;1.57;;
9288;SDS011;4683;50.864;12.086;2023-09-19T02:07:17;2.07;;;1.67;;
9288;SDS011;4683;50.864;12.086;2023-09-19T02:09:55;2.43;;;1.40;;
9288;SDS011;4683;50.864;12.086;2023-09-19T02:12:40;1.57;;;1.47;;
9288;SDS011;4683;50.864;12.086;2023-09-19T02:15:14;2.77;;;1.80;;
9288;SDS011;4683;50.864;12.086;2023-09-19T02:17:43;2.73;;;1.50;;
9288;SDS011;4683;50.864;12.086;2023-09-19T02:20:13;2.00;;;1.13;;
9288;SDS011;4683;50.864;12.086;2023-09-19T02:22:43;1.70;;;1.60;;
9288;SDS011;4683;50.864;12.086;2023-09-19T02:25:11;1.50;;;1.40;;
9288;SDS011;4683;50.864;12.086;2023-09-19T02:27:45;4.00;;;1.70;;
9288;SDS011;4683;50.864;12.086;2023-09-19T02:30:22;1.40;;;1.30;;
9288;SDS011;4683;50.864;12.086;2023-09-19T02:33:00;1.77;;;1.40;;
9288;SDS011;4683;50.864;12.086;2023-09-19T02:35:37;2.00;;;1.80;;
9288;SDS011;4683;50.864;12.086;2023-09-19T02:38:13;1.87;;;1.63;;
9288;SDS011;4683;50.864;12.086;2023-09-19T02:40:49;2.33;;;2.10;;
9288;SDS011;4683;50.864;12.086;2023-09-19T02:43:18;2.77;;;1.77;;
9288;SDS011;4683;50.864;12.086;2023-09-19T02:45:48;2.27;;;2.07;;
9288;SDS011;4683;50.864;12.086;2023-09-19T02:51:45;1.93;;;1.67;;
9288;SDS011;4683;50.864;12.086;2023-09-19T02:54:19;2.30;;;1.83;;
9288;SDS011;4683;50.864;12.086;2023-09-19T02:56:56;2.20;;;1.87;;
9288;SDS011;4683;50.864;12.086;2023-09-19T02:59:46;2.60;;;1.97;;
9288;SDS011;4683;50.864;12.086;2023-09-19T03:02:15;1.90;;;1.80;;
9288;SDS011;4683;50.864;12.086;2023-09-19T03:04:49;2.73;;;2.00;;
9288;SDS011;4683;50.864;12.086;2023-09-19T03:07:27;2.63;;;1.87;;
9288;SDS011;4683;50.864;12.086;2023-09-19T03:10:00;3.83;;;2.03;;
9288;SDS011;4683;50.864;12.086;2023-09-19T03:12:35;2.37;;;2.17;;
9288;SDS011;4683;50.864;12.086;2023-09-19T03:15:06;2.60;;;1.80;;
9288;SDS011;4683;50.864;12.086;2023-09-19T03:17:36;2.27;;;2.07;;
9288;SDS011;4683;50.864;12.086;2023-09-19T03:20:10;2.30;;;1.83;;
9288;SDS011;4683;50.864;12.086;2023-09-19T03:22:47;2.53;;;2.10;;
9288;SDS011;4683;50.864;12.086;2023-09-19T03:25:16;3.00;;;2.00;;
9288;SDS011;4683;50.864;12.086;2023-09-19T03:28:06;1.77;;;1.67;;
9288;SDS011;4683;50.864;12.086;2023-09-19T03:30:35;2.13;;;2.00;;
9288;SDS011;4683;50.864;12.086;2023-09-19T03:33:04;2.37;;;2.17;;
9288;SDS011;4683;50.864;12.086;2023-09-19T03:35:32;3.03;;;1.90;;
9288;SDS011;4683;50.864;12.086;2023-09-19T03:38:04;2.83;;;2.63;;
9288;SDS011;4683;50.864;12.086;2023-09-19T03:40:32;3.07;;;2.03;;
9288;SDS011;4683;50.864;12.086;2023-09-19T03:43:09;2.40;;;2.20;;
9288;SDS011;4683;50.864;12.086;2023-09-19T03:45:37;2.53;;;2.03;;
9288;SDS011;4683;50.864;12.086;2023-09-19T03:48:08;3.33;;;1.70;;
9288;SDS011;4683;50.864;12.086;2023-09-19T03:50:50;2.13;;;1.93;;
9288;SDS011;4683;50.864;12.086;2023-09-19T03:53:40;2.23;;;2.03;;
9288;SDS011;4683;50.864;12.086;2023-09-19T03:56:08;2.97;;;2.00;;
9288;SDS011;4683;50.864;12.086;2023-09-19T03:58:42;2.47;;;2.00;;
9288;SDS011;4683;50.864;12.086;2023-09-19T04:01:10;2.70;;;2.00;;
9288;SDS011;4683;50.864;12.086;2023-09-19T04:03:46;2.70;;;2.40;;
9288;SDS011;4683;50.864;12.086;2023-09-19T04:06:23;3.10;;;1.83;;
9288;SDS011;4683;50.864;12.086;2023-09-19T04:08:54;2.17;;;2.07;;
9288;SDS011;4683;50.864;12.086;2023-09-19T04:11:27;1.97;;;1.87;;
9288;SDS011;4683;50.864;12.086;2023-09-19T04:14:40;2.13;;;1.93;;
9288;SDS011;4683;50.864;12.086;2023-09-19T04:18:01;2.87;;;2.50;;
9288;SDS011;4683;50.864;12.086;2023-09-19T04:21:04;2.23;;;2.03;;
9288;SDS011;4683;50.864;12.086;2023-09-19T04:23:37;3.60;;;1.93;;
9288;SDS011;4683;50.864;12.086;2023-09-19T04:29:58;3.93;;;2.23;;
9288;SDS011;4683;50.864;12.086;2023-09-19T04:32:40;2.80;;;2.13;;
9288;SDS011;4683;50.864;12.086;2023-09-19T04:35:22;2.77;;;2.43;;
9288;SDS011;4683;50.864;12.086;2023-09-19T04:38:27;2.37;;;2.07;;
9288;SDS011;4683;50.864;12.086;2023-09-19T04:40:57;3.07;;;2.60;;
9288;SDS011;4683;50.864;12.086;2023-09-19T04:43:27;2.93;;;2.30;;
9288;SDS011;4683;50.864;12.086;2023-09-19T04:45:58;2.63;;;2.43;;
9288;SDS011;4683;50.864;12.086;2023-09-19T04:48:26;3.83;;;3.03;;
9288;SDS011;4683;50.864;12.086;2023-09-19T04:50:56;2.63;;;2.43;;
9288;SDS011;4683;50.864;12.086;2023-09-19T04:53:43;3.47;;;2.83;;
9288;SDS011;4683;50.864;12.086;2023-09-19T04:56:13;3.30;;;2.80;;
9288;SDS011;4683;50.864;12.086;2023-09-19T04:58:43;4.23;;;2.20;;
9288;SDS011;4683;50.864;12.086;2023-09-19T05:01:16;3.37;;;2.37;;
9288;SDS011;4683;50.864;12.086;2023-09-19T05:03:45;2.77;;;1.93;;
9288;SDS011;4683;50.864;12.086;2023-09-19T05:06:23;4.63;;;2.43;;
9288;SDS011;4683;50.864;12.086;2023-09-19T05:08:53;3.03;;;2.60;;
9288;SDS011;4683;50.864;12.086;2023-09-19T05:11:22;3.37;;;2.60;;
9288;SDS011;4683;50.864;12.086;2023-09-19T05:13:58;2.83;;;2.20;;
9288;SDS011;4683;50.864;12.086;2023-09-19T05:16:44;3.23;;;2.67;;
9288;SDS011;4683;50.864;12.086;2023-09-19T05:19:14;3.47;;;3.03;;
9288;SDS011;4683;50.864;12.086;2023-09-19T05:21:42;5.30;;;4.33;;
9288;SDS011;4683;50.864;12.086;2023-09-19T05:24:13;3.00;;;2.70;;
9288;SDS011;4683;50.864;12.086;2023-09-19T05:26:43;5.50;;;3.40;;
9288;SDS011;4683;50.864;12.086;2023-09-19T05:29:16;4.03;;;2.77;;
9288;SDS011;4683;50.864;12.086;2023-09-19T05:31:46;2.83;;;2.30;;
9288;SDS011;4683;50.864;12.086;2023-09-19T05:34:16;3.03;;;2.60;;
9288;SDS011;4683;50.864;12.086;2023-09-19T05:36:49;4.40;;;2.70;;
9288;SDS011;4683;50.864;12.086;2023-09-19T05:39:21;3.13;;;2.83;;
9288;SDS011;4683;50.864;12.086;2023-09-19T05:41:54;4.67;;;3.20;;
9288;SDS011;4683;50.864;12.086;2023-09-19T05:44:37;5.00;;;2.77;;
9288;SDS011;4683;50.864;12.086;2023-09-19T05:47:06;4.07;;;2.97;;
9288;SDS011;4683;50.864;12.086;2023-09-19T05:49:36;3.87;;;3.37;;
9288;SDS011;4683;50.864;12.086;2023-09-19T05:52:05;5.07;;;3.20;;
9288;SDS011;4683;50.864;12.086;2023-09-19T05:54:34;2.97;;;2.67;;
9288;SDS011;4683;50.864;12.086;2023-09-19T05:57:05;6.17;;;2.47;;
9288;SDS011;4683;50.864;12.086;2023-09-19T05:59:45;4.47;;;2.23;;
9288;SDS011;4683;50.864;12.086;2023-09-19T06:02:24;4.27;;;2.40;;
9288;SDS011;4683;50.864;12.086;2023-09-19T06:05:02;3.47;;;2.30;;
9288;SDS011;4683;50.864;12.086;2023-09-19T06:07:38;2.40;;;2.20;;
9288;SDS011;4683;50.864;12.086;2023-09-19T06:10:09;3.80;;;2.20;;
9288;SDS011;4683;50.864;12.086;2023-09-19T06:12:42;3.67;;;2.40;;
9288;SDS011;4683;50.864;12.086;2023-09-19T06:15:15;3.63;;;2.50;;
9288;SDS011;4683;50.864;12.086;2023-09-19T06:17:50;1.70;;;1.47;;
9288;SDS011;4683;50.864;12.086;2023-09-19T06:20:23;3.77;;;2.10;;
9288;SDS011;4683;50.864;12.086;2023-09-19T06:22:56;3.20;;;2.03;;
9288;SDS011;4683;50.864;12.086;2023-09-19T06:25:27;3.57;;;2.10;;
9288;SDS011;4683;50.864;12.086;2023-09-19T06:27:56;3.53;;;1.90;;
9288;SDS011;4683;50.864;12.086;2023-09-19T06:30:26;3.33;;;2.20;;
9288;SDS011;4683;50.864;12.086;2023-09-19T06:32:55;2.57;;;2.00;;
9288;SDS011;4683;50.864;12.086;2023-09-19T06:35:25;5.27;;;2.30;;
9288;SDS011;4683;50.864;12.086;2023-09-19T06:37:59;3.73;;;2.20;;
9288;SDS011;4683;50.864;12.086;2023-09-19T06:40:33;4.37;;;2.43;;
9288;SDS011;4683;50.864;12.086;2023-09-19T06:43:05;2.97;;;2.10;;
9288;SDS011;4683;50.864;12.086;2023-09-19T06:45:36;3.30;;;2.10;;
9288;SDS011;4683;50.864;12.086;2023-09-19T06:48:06;2.77;;;1.93;;
9288;SDS011;4683;50.864;12.086;2023-09-19T06:50:37;2.17;;;1.97;;
9288;SDS011;4683;50.864;12.086;2023-09-19T06:53:11;1.63;;;1.30;;
9288;SDS011;4683;50.864;12.086;2023-09-19T06:55:40;1.67;;;1.50;;
9288;SDS011;4683;50.864;12.086;2023-09-19T06:58:12;1.60;;;1.50;;
9288;SDS011;4683;50.864;12.086;2023-09-19T07:00:44;1.90;;;1.40;;
9288;SDS011;4683;50.864;12.086;2023-09-19T07:03:13;1.60;;;1.37;;
9288;SDS011;4683;50.864;12.086;2023-09-19T07:05:46;2.10;;;1.30;;
9288;SDS011;4683;50.864;12.086;2023-09-19T07:08:16;1.33;;;1.23;;
9288;SDS011;4683;50.864;12.086;2023-09-19T07:10:50;1.90;;;1.43;;
9288;SDS011;4683;50.864;12.086;2023-09-19T07:13:21;2.93;;;1.60;;
9288;SDS011;4683;50.864;12.086;2023-09-19T07:15:52;3.57;;;2.20;;
9288;SDS011;4683;50.864;12.086;2023-09-19T07:18:25;2.00;;;1.57;;
9288;SDS011;4683;50.864;12.086;2023-09-19T07:20:57;1.50;;;1.40;;
9288;SDS011;4683;50.864;12.086;2023-09-19T07:23:30;1.97;;;1.17;;
9288;SDS011;4683;50.864;12.086;2023-09-19T07:26:01;1.97;;;1.53;;
9288;SDS011;4683;50.864;12.086;2023-09-19T07:28:35;2.73;;;1.60;;
9288;SDS011;4683;50.864;12.086;2023-09-19T07:31:08;3.00;;;2.03;;
9288;SDS011;4683;50.864;12.086;2023-09-19T07:33:38;5.63;;;2.00;;
9288;SDS011;4683;50.864;12.086;2023-09-19T07:36:15;1.67;;;1.40;;
9288;SDS011;4683;50.864;12.086;2023-09-19T07:38:45;1.97;;;1.20;;
9288;SDS011;4683;50.864;12.086;2023-09-19T07:41:15;1.33;;;1.23;;
9288;SDS011;4683;50.864;12.086;2023-09-19T07:43:44;1.30;;;1.10;;
9288;SDS011;4683;50.864;12.086;2023-09-19T07:46:14;2.13;;;1.90;;
9288;SDS011;4683;50.864;12.086;2023-09-19T07:48:42;1.80;;;1.40;;
9288;SDS011;4683;50.864;12.086;2023-09-19T07:51:14;1.47;;;1.37;;
9288;SDS011;4683;50.864;12.086;2023-09-19T07:53:44;3.27;;;1.83;;
9288;SDS011;4683;50.864;12.086;2023-09-19T07:56:19;2.03;;;1.37;;
9288;SDS011;4683;50.864;12.086;2023-09-19T07:58:48;1.97;;;1.47;;
9288;SDS011;4683;50.864;12.086;2023-09-19T08:01:19;3.03;;;1.37;;
9288;SDS011;4683;50.864;12.086;2023-09-19T08:03:50;2.37;;;1.37;;
9288;SDS011;4683;50.864;12.086;2023-09-19T08:06:38;1.50;;;1.40;;
9288;SDS011;4683;50.864;12.086;2023-09-19T08:09:06;2.47;;;1.87;;
9288;SDS011;4683;50.864;12.086;2023-09-19T08:11:37;1.57;;;1.13;;
9288;SDS011;4683;50.864;12.086;2023-09-19T08:14:05;2.07;;;1.80;;
9288;SDS011;4683;50.864;12.086;2023-09-19T08:16:38;1.50;;;1.40;;
9288;SDS011;4683;50.864;12.086;2023-09-19T08:19:09;2.93;;;1.17;;
9288;SDS011;4683;50.864;12.086;2023-09-19T08:21:40;2.33;;;1.10;;
9288;SDS011;4683;50.864;12.086;2023-09-19T08:24:15;1.07;;;1.07;;
9288;SDS011;4683;50.864;12.086;2023-09-19T08:26:44;1.50;;;1.17;;
9288;SDS011;4683;50.864;12.086;2023-09-19T08:29:13;1.30;;;1.20;;
9288;SDS011;4683;50.864;12.086;2023-09-19T08:31:48;1.40;;;1.30;;
9288;SDS011;4683;50.864;12.086;2023-09-19T08:34:17;1.50;;;1.20;;
9288;SDS011;4683;50.864;12.086;2023-09-19T08:36:47;2.77;;;1.23;;
9288;SDS011;4683;50.864;12.086;2023-09-19T08:39:18;1.87;;;1.17;;
9288;SDS011;4683;50.864;12.086;2023-09-19T08:41:47;2.20;;;1.20;;
9288;SDS011;4683;50.864;12.086;2023-09-19T08:44:15;3.40;;;1.30;;
9288;SDS011;4683;50.864;12.086;2023-09-19T08:46:45;1.93;;;1.37;;
9288;SDS011;4683;50.864;12.086;2023-09-19T08:49:20;2.10;;;1.33;;
9288;SDS011;4683;50.864;12.086;2023-09-19T08:52:01;2.57;;;0.90;;
9288;SDS011;4683;50.864;12.086;2023-09-19T08:54:38;1.10;;;1.00;;
9288;SDS011;4683;50.864;12.086;2023-09-19T08:57:10;2.93;;;1.67;;
9288;SDS011;4683;50.864;12.086;2023-09-19T08:59:48;1.20;;;1.10;;
9288;SDS011;4683;50.864;12.086;2023-09-19T09:02:19;2.13;;;1.20;;
9288;SDS011;4683;50.864;12.086;2023-09-19T09:04:51;3.00;;;1.20;;
9288;SDS011;4683;50.864;12.086;2023-09-19T09:07:20;1.87;;;1.30;;
9288;SDS011;4683;50.864;12.086;2023-09-19T09:09:52;1.27;;;0.83;;
9288;SDS011;4683;50.864;12.086;2023-09-19T09:12:22;1.20;;;1.10;;
9288;SDS011;4683;50.864;12.086;2023-09-19T09:14:52;2.60;;;1.57;;
9288;SDS011;4683;50.864;12.086;2023-09-19T09:17:22;1.40;;;1.30;;
9288;SDS011;4683;50.864;12.086;2023-09-19T09:19:53;1.43;;;1.23;;
9288;SDS011;4683;50.864;12.086;2023-09-19T09:22:22;1.93;;;1.60;;
9288;SDS011;4683;50.864;12.086;2023-09-19T09:24:51;1.10;;;1.00;;
9288;SDS011;4683;50.864;12.086;2023-09-19T09:27:23;1.03;;;0.93;;
9288;SDS011;4683;50.864;12.086;2023-09-19T09:29:56;1.77;;;1.07;;
9288;SDS011;4683;50.864;12.086;2023-09-19T09:32:28;1.87;;;1.67;;
9288;SDS011;4683;50.864;12.086;2023-09-19T09:35:01;2.57;;;1.30;;
9288;SDS011;4683;50.864;12.086;2023-09-19T09:37:35;2.33;;;1.60;;
9288;SDS011;4683;50.864;12.086;2023-09-19T09:40:07;2.37;;;1.27;;
9288;SDS011;4683;50.864;12.086;2023-09-19T09:42:49;2.63;;;1.10;;
9288;SDS011;4683;50.864;12.086;2023-09-19T09:45:23;1.50;;;1.33;;
9288;SDS011;4683;50.864;12.086;2023-09-19T09:48:05;1.43;;;1.30;;
9288;SDS011;4683;50.864;12.086;2023-09-19T09:50:46;0.93;;;0.80;;
9288;SDS011;4683;50.864;12.086;2023-09-19T09:53:22;1.13;;;1.03;;
9288;SDS011;4683;50.864;12.086;2023-09-19T09:55:57;1.80;;;1.23;;
9288;SDS011;4683;50.864;12.086;2023-09-19T09:58:33;2.13;;;1.37;;
9288;SDS011;4683;50.864;12.086;2023-09-19T10:01:12;3.53;;;2.00;;
9288;SDS011;4683;50.864;12.086;2023-09-19T10:03:45;1.40;;;1.30;;
9288;SDS011;4683;50.864;12.086;2023-09-19T10:06:15;1.70;;;1.50;;
9288;SDS011;4683;50.864;12.086;2023-09-19T10:08:59;2.90;;;1.37;;
9288;SDS011;4683;50.864;12.086;2023-09-19T10:11:41;1.73;;;1.40;;
9288;SDS011;4683;50.864;12.086;2023-09-19T10:14:11;1.53;;;1.30;;
9288;SDS011;4683;50.864;12.086;2023-09-19T10:16:45;2.10;;;1.90;;
9288;SDS011;4683;50.864;12.086;2023-09-19T10:19:20;2.77;;;1.60;;
9288;SDS011;4683;50.864;12.086;2023-09-19T10:22:02;2.07;;;1.47;;
9288;SDS011;4683;50.864;12.086;2023-09-19T10:24:35;1.70;;;1.27;;
9288;SDS011;4683;50.864;12.086;2023-09-19T10:27:06;3.57;;;1.40;;
9288;SDS011;4683;50.864;12.086;2023-09-19T10:29:38;2.23;;;1.70;;
9288;SDS011;4683;50.864;12.086;2023-09-19T10:32:09;2.80;;;1.97;;
9288;SDS011;4683;50.864;12.086;2023-09-19T10:34:46;1.97;;;1.03;;
9288;SDS011;4683;50.864;12.086;2023-09-19T10:37:16;3.77;;;1.73;;
9288;SDS011;4683;50.864;12.086;2023-09-19T10:39:55;1.57;;;1.47;;
9288;SDS011;4683;50.864;12.086;2023-09-19T10:42:25;1.53;;;1.43;;
9288;SDS011;4683;50.864;12.086;2023-09-19T10:44:58;2.07;;;1.73;;
9288;SDS011;4683;50.864;12.086;2023-09-19T10:47:34;4.33;;;2.10;;
9288;SDS011;4683;50.864;12.086;2023-09-19T10:50:06;1.83;;;1.70;;
9288;SDS011;4683;50.864;12.086;2023-09-19T10:52:39;1.87;;;1.50;;
9288;SDS011;4683;50.864;12.086;2023-09-19T10:55:10;1.40;;;1.30;;
9288;SDS011;4683;50.864;12.086;2023-09-19T10:57:45;1.93;;;1.60;;
9288;SDS011;4683;50.864;12.086;2023-09-19T11:00:15;2.60;;;1.70;;
9288;SDS011;4683;50.864;12.086;2023-09-19T11:06:02;1.60;;;1.50;;
9288;SDS011;4683;50.864;12.086;2023-09-19T11:08:56;1.40;;;1.30;;
9288;SDS011;4683;50.864;12.086;2023-09-19T11:11:48;3.73;;;2.23;;
9288;SDS011;4683;50.864;12.086;2023-09-19T11:14:28;2.90;;;1.97;;
9288;SDS011;4683;50.864;12.086;2023-09-19T11:20:20;6.07;;;1.83;;
9288;SDS011;4683;50.864;12.086;2023-09-19T11:23:21;2.07;;;1.90;;
9288;SDS011;4683;50.864;12.086;2023-09-19T11:25:53;2.17;;;1.70;;
9288;SDS011;4683;50.864;12.086;2023-09-19T11:28:32;1.70;;;1.60;;
9288;SDS011;4683;50.864;12.086;2023-09-19T11:40:38;1.80;;;1.70;;
9288;SDS011;4683;50.864;12.086;2023-09-19T11:43:31;1.67;;;1.57;;
9288;SDS011;4683;50.864;12.086;2023-09-19T11:46:06;2.43;;;2.23;;
9288;SDS011;4683;50.864;12.086;2023-09-19T11:48:38;2.80;;;2.20;;
9288;SDS011;4683;50.864;12.086;2023-09-19T11:51:12;3.70;;;2.30;;
9288;SDS011;4683;50.864;12.086;2023-09-19T11:54:02;3.07;;;2.40;;
9288;SDS011;4683;50.864;12.086;2023-09-19T11:56:38;2.27;;;1.93;;
9288;SDS011;4683;50.864;12.086;2023-09-19T11:59:08;3.60;;;2.20;;
9288;SDS011;4683;50.864;12.086;2023-09-19T12:01:42;2.23;;;2.03;;
9288;SDS011;4683;50.864;12.086;2023-09-19T12:04:21;2.80;;;2.50;;
9288;SDS011;4683;50.864;12.086;2023-09-19T12:07:04;2.23;;;1.80;;
9288;SDS011;4683;50.864;12.086;2023-09-19T12:09:40;2.60;;;2.23;;
9288;SDS011;4683;50.864;12.086;2023-09-19T12:12:20;1.70;;;1.60;;
9288;SDS011;4683;50.864;12.086;2023-09-19T12:15:03;2.10;;;1.90;;
9288;SDS011;4683;50.864;12.086;2023-09-19T12:17:46;2.00;;;1.80;;
9288;SDS011;4683;50.864;12.086;2023-09-19T12:20:16;3.33;;;2.50;;
9288;SDS011;4683;50.864;12.086;2023-09-19T12:22:47;3.80;;;2.37;;
9288;SDS011;4683;50.864;12.086;2023-09-19T12:25:17;2.87;;;2.00;;
9288;SDS011;4683;50.864;12.086;2023-09-19T12:27:49;2.83;;;2.20;;
9288;SDS011;4683;50.864;12.086;2023-09-19T12:30:19;3.50;;;2.70;;
9288;SDS011;4683;50.864;12.086;2023-09-19T12:33:01;3.13;;;2.07;;
9288;SDS011;4683;50.864;12.086;2023-09-19T12:35:47;1.87;;;1.77;;
9288;SDS011;4683;50.864;12.086;2023-09-19T12:38:24;2.50;;;2.10;;
9288;SDS011;4683;50.864;12.086;2023-09-19T12:40:54;3.10;;;2.27;;
9288;SDS011;4683;50.864;12.086;2023-09-19T12:43:27;3.77;;;2.53;;
9288;SDS011;4683;50.864;12.086;2023-09-19T12:45:59;2.67;;;2.20;;
9288;SDS011;4683;50.864;12.086;2023-09-19T12:48:34;2.40;;;2.20;;
9288;SDS011;4683;50.864;12.086;2023-09-19T12:51:05;1.97;;;1.87;;
9288;SDS011;4683;50.864;12.086;2023-09-19T12:53:39;2.77;;;2.33;;
9288;SDS011;4683;50.864;12.086;2023-09-19T12:56:11;2.53;;;2.33;;
9288;SDS011;4683;50.864;12.086;2023-09-19T12:58:55;2.87;;;2.20;;
9288;SDS011;4683;50.864;12.086;2023-09-19T13:01:28;3.27;;;2.53;;
9288;SDS011;4683;50.864;12.086;2023-09-19T13:04:15;2.77;;;2.50;;
9288;SDS011;4683;50.864;12.086;2023-09-19T13:06:53;2.70;;;1.90;;
9288;SDS011;4683;50.864;12.086;2023-09-19T13:09:25;2.47;;;1.70;;
9288;SDS011;4683;50.864;12.086;2023-09-19T13:12:00;3.47;;;2.50;;
9288;SDS011;4683;50.864;12.086;2023-09-19T13:14:30;2.30;;;2.10;;
9288;SDS011;4683;50.864;12.086;2023-09-19T13:17:06;3.13;;;2.20;;
9288;SDS011;4683;50.864;12.086;2023-09-19T13:19:42;4.33;;;2.63;;
9288;SDS011;4683;50.864;12.086;2023-09-19T13:22:37;2.50;;;2.07;;
9288;SDS011;4683;50.864;12.086;2023-09-19T13:25:08;2.37;;;2.17;;
9288;SDS011;4683;50.864;12.086;2023-09-19T13:27:41;2.57;;;2.30;;
9288;SDS011;4683;50.864;12.086;2023-09-19T13:30:13;2.73;;;2.53;;
9288;SDS011;4683;50.864;12.086;2023-09-19T13:32:42;2.40;;;2.13;;
9288;SDS011;4683;50.864;12.086;2023-09-19T13:35:13;2.53;;;2.33;;
9288;SDS011;4683;50.864;12.086;2023-09-19T13:37:43;4.50;;;2.60;;
9288;SDS011;4683;50.864;12.086;2023-09-19T13:40:18;2.20;;;2.00;;
9288;SDS011;4683;50.864;12.086;2023-09-19T13:42:46;3.17;;;2.87;;
9288;SDS011;4683;50.864;12.086;2023-09-19T13:45:24;3.53;;;2.80;;
9288;SDS011;4683;50.864;12.086;2023-09-19T13:47:57;5.27;;;2.70;;
9288;SDS011;4683;50.864;12.086;2023-09-19T13:50:26;2.60;;;2.40;;
9288;SDS011;4683;50.864;12.086;2023-09-19T13:52:57;3.57;;;2.70;;
9288;SDS011;4683;50.864;12.086;2023-09-19T13:55:45;4.03;;;2.90;;
9288;SDS011;4683;50.864;12.086;2023-09-19T13:58:15;4.90;;;2.87;;
9288;SDS011;4683;50.864;12.086;2023-09-19T14:00:45;3.53;;;2.00;;
9288;SDS011;4683;50.864;12.086;2023-09-19T14:03:14;3.20;;;2.33;;
9288;SDS011;4683;50.864;12.086;2023-09-19T14:05:56;3.37;;;2.60;;
9288;SDS011;4683;50.864;12.086;2023-09-19T14:08:24;3.03;;;2.50;;
9288;SDS011;4683;50.864;12.086;2023-09-19T14:10:54;5.63;;;2.70;;
9288;SDS011;4683;50.864;12.086;2023-09-19T14:13:24;4.77;;;2.57;;
9288;SDS011;4683;50.864;12.086;2023-09-19T14:16:02;2.90;;;2.70;;
9288;SDS011;4683;50.864;12.086;2023-09-19T14:18:42;3.40;;;3.10;;
9288;SDS011;4683;50.864;12.086;2023-09-19T14:21:13;2.77;;;2.47;;
9288;SDS011;4683;50.864;12.086;2023-09-19T14:23:42;3.13;;;2.73;;
9288;SDS011;4683;50.864;12.086;2023-09-19T14:26:12;2.10;;;1.90;;
9288;SDS011;4683;50.864;12.086;2023-09-19T14:28:42;2.00;;;1.70;;
9288;SDS011;4683;50.864;12.086;2023-09-19T14:31:14;3.00;;;2.70;;
9288;SDS011;4683;50.864;12.086;2023-09-19T14:33:53;2.80;;;2.60;;
9288;SDS011;4683;50.864;12.086;2023-09-19T14:36:30;3.00;;;2.67;;
9288;SDS011;4683;50.864;12.086;2023-09-19T14:39:11;3.10;;;2.43;;
9288;SDS011;4683;50.864;12.086;2023-09-19T14:41:42;3.70;;;2.33;;
9288;SDS011;4683;50.864;12.086;2023-09-19T14:44:11;3.60;;;3.10;;
9288;SDS011;4683;50.864;12.086;2023-09-19T14:46:45;3.03;;;2.50;;
9288;SDS011;4683;50.864;12.086;2023-09-19T14:49:13;3.23;;;2.40;;
9288;SDS011;4683;50.864;12.086;2023-09-19T14:51:42;3.70;;;3.00;;
9288;SDS011;4683;50.864;12.086;2023-09-19T14:54:15;3.17;;;2.73;;
9288;SDS011;4683;50.864;12.086;2023-09-19T14:56:45;2.60;;;2.40;;
9288;SDS011;4683;50.864;12.086;2023-09-19T14:59:19;3.00;;;2.70;;
9288;SDS011;4683;50.864;12.086;2023-09-19T15:02:07;2.70;;;2.50;;
9288;SDS011;4683;50.864;12.086;2023-09-19T15:04:38;2.43;;;2.23;;
9288;SDS011;4683;50.864;12.086;2023-09-19T15:07:26;3.90;;;3.20;;
9288;SDS011;4683;50.864;12.086;2023-09-19T15:09:56;4.37;;;2.70;;
9288;SDS011;4683;50.864;12.086;2023-09-19T15:12:34;2.60;;;2.40;;
9288;SDS011;4683;50.864;12.086;2023-09-19T15:15:04;4.57;;;3.13;;
9288;SDS011;4683;50.864;12.086;2023-09-19T15:17:37;3.27;;;2.77;;
9288;SDS011;4683;50.864;12.086;2023-09-19T15:20:06;5.20;;;3.03;;
9288;SDS011;4683;50.864;12.086;2023-09-19T15:22:41;4.50;;;2.83;;
9288;SDS011;4683;50.864;12.086;2023-09-19T15:25:10;4.33;;;2.83;;
9288;SDS011;4683;50.864;12.086;2023-09-19T15:27:52;2.93;;;2.47;;
9288;SDS011;4683;50.864;12.086;2023-09-19T15:30:21;7.30;;;2.80;;
9288;SDS011;4683;50.864;12.086;2023-09-19T15:32:54;3.23;;;2.93;;
9288;SDS011;4683;50.864;12.086;2023-09-19T15:35:27;3.23;;;2.37;;
9288;SDS011;4683;50.864;12.086;2023-09-19T15:37:56;4.83;;;2.80;;
9288;SDS011;4683;50.864;12.086;2023-09-19T15:40:31;4.67;;;3.37;;
9288;SDS011;4683;50.864;12.086;2023-09-19T15:43:04;3.90;;;2.80;;
9288;SDS011;4683;50.864;12.086;2023-09-19T15:45:39;4.90;;;3.17;;
9288;SDS011;4683;50.864;12.086;2023-09-19T15:48:10;4.50;;;3.40;;
9288;SDS011;4683;50.864;12.086;2023-09-19T15:50:38;3.57;;;3.10;;
9288;SDS011;4683;50.864;12.086;2023-09-19T15:53:12;3.90;;;3.00;;
9288;SDS011;4683;50.864;12.086;2023-09-19T15:55:43;4.43;;;2.80;;
9288;SDS011;4683;50.864;12.086;2023-09-19T15:58:12;3.67;;;2.80;;
9288;SDS011;4683;50.864;12.086;2023-09-19T16:00:41;4.37;;;3.00;;
9288;SDS011;4683;50.864;12.086;2023-09-19T16:03:13;5.00;;;2.93;;
9288;SDS011;4683;50.864;12.086;2023-09-19T16:05:42;3.03;;;2.73;;
9288;SDS011;4683;50.864;12.086;2023-09-19T16:08:10;2.97;;;2.63;;
9288;SDS011;4683;50.864;12.086;2023-09-19T16:10:39;4.63;;;2.70;;